Hassi-Messaoud, Algeria
Current Conditions -  °F | °C
As of 12:30 PM on Monday 20 Oct 2014 (Local Time) from DAUH Reporting Station
Clear Clear  
Wind Chill: 91°   Ceiling: Unl
Heat Index: 91°   Visibility: 6mi
Dew Point: 46°   Wind: 9mph
Humidity: 21%   Direction: 80°E
Pressure: 30.18"   Gusts: NA
Location:  31.68°N, 6.07°E
Report Text: DAUH 201130Z 08008KT CAVOK 33/08 Q1022
Loading
Personal Weather Stations






























Interactive Weather Map
Tropical Storm Tracking
New forecast layout! Learn more

10-Day Weather Forecast

Advertisements
Track Severe Weather on mobile